sensor_id;sensor_type;location;lat;lon;timestamp;pressure;altitude;pressure_sealevel;temperature;humidity
66627;BME280;53498;50.422;14.912;2022-12-18T00:01:31;100604.72;;;-3.87;97.53
66627;BME280;53498;50.422;14.912;2022-12-18T00:03:57;100603.47;;;-3.82;97.50
66627;BME280;53498;50.422;14.912;2022-12-18T00:06:25;100604.22;;;-3.83;96.44
66627;BME280;53498;50.422;14.912;2022-12-18T00:08:51;100604.22;;;-3.83;97.72
66627;BME280;53498;50.422;14.912;2022-12-18T00:11:20;100595.19;;;-3.90;97.22
66627;BME280;53498;50.422;14.912;2022-12-18T00:13:47;100596.59;;;-3.93;97.40
66627;BME280;53498;50.422;14.912;2022-12-18T00:16:15;100608.53;;;-3.92;97.37
66627;BME280;53498;50.422;14.912;2022-12-18T00:18:41;100605.97;;;-3.72;98.11
66627;BME280;53498;50.422;14.912;2022-12-18T00:21:10;100598.22;;;-3.74;95.37
66627;BME280;53498;50.422;14.912;2022-12-18T00:23:39;100613.34;;;-3.75;95.59
66627;BME280;53498;50.422;14.912;2022-12-18T00:26:11;100604.72;;;-3.77;95.56
66627;BME280;53498;50.422;14.912;2022-12-18T00:28:44;100599.91;;;-3.94;96.89
66627;BME280;53498;50.422;14.912;2022-12-18T00:31:15;100601.16;;;-3.89;96.29
66627;BME280;53498;50.422;14.912;2022-12-18T00:33:41;100608.56;;;-4.03;97.56
66627;BME280;53498;50.422;14.912;2022-12-18T00:36:11;100614.53;;;-4.12;97.48
66627;BME280;53498;50.422;14.912;2022-12-18T00:38:37;100620.38;;;-4.34;98.78
66627;BME280;53498;50.422;14.912;2022-12-18T00:41:04;100617.19;;;-4.11;98.03
66627;BME280;53498;50.422;14.912;2022-12-18T00:43:29;100612.00;;;-4.23;98.42
66627;BME280;53498;50.422;14.912;2022-12-18T00:45:55;100617.31;;;-3.99;97.96
66627;BME280;53498;50.422;14.912;2022-12-18T00:48:21;100617.97;;;-3.91;97.91
66627;BME280;53498;50.422;14.912;2022-12-18T00:50:48;100617.31;;;-4.09;96.56
66627;BME280;53498;50.422;14.912;2022-12-18T00:53:13;100621.00;;;-4.06;97.09
66627;BME280;53498;50.422;14.912;2022-12-18T00:55:40;100632.69;;;-3.87;97.66
66627;BME280;53498;50.422;14.912;2022-12-18T00:58:06;100634.59;;;-4.05;96.58
66627;BME280;53498;50.422;14.912;2022-12-18T01:00:32;100637.28;;;-4.04;97.55
66627;BME280;53498;50.422;14.912;2022-12-18T01:02:57;100642.59;;;-3.90;98.71
66627;BME280;53498;50.422;14.912;2022-12-18T01:05:23;100650.50;;;-3.87;96.55
66627;BME280;53498;50.422;14.912;2022-12-18T01:07:49;100653.78;;;-3.78;96.46
66627;BME280;53498;50.422;14.912;2022-12-18T01:10:14;100653.78;;;-3.78;97.15
66627;BME280;53498;50.422;14.912;2022-12-18T01:12:40;100654.19;;;-3.94;96.89
66627;BME280;53498;50.422;14.912;2022-12-18T01:15:07;100663.44;;;-3.84;97.30
66627;BME280;53498;50.422;14.912;2022-12-18T01:17:33;100647.81;;;-3.89;96.31
66627;BME280;53498;50.422;14.912;2022-12-18T01:19:59;100654.91;;;-3.95;97.14
66627;BME280;53498;50.422;14.912;2022-12-18T01:22:24;100663.19;;;-3.77;97.97
66627;BME280;53498;50.422;14.912;2022-12-18T01:24:50;100662.31;;;-3.88;96.83
66627;BME280;53498;50.422;14.912;2022-12-18T01:27:15;100670.03;;;-4.17;97.16
66627;BME280;53498;50.422;14.912;2022-12-18T01:29:41;100668.53;;;-4.25;98.72
66627;BME280;53498;50.422;14.912;2022-12-18T01:32:08;100668.16;;;-4.20;98.70
66627;BME280;53498;50.422;14.912;2022-12-18T01:34:37;100663.44;;;-4.15;99.01
66627;BME280;53498;50.422;14.912;2022-12-18T01:37:04;100661.66;;;-4.06;99.84
66627;BME280;53498;50.422;14.912;2022-12-18T01:39:30;100674.00;;;-4.00;98.57
66627;BME280;53498;50.422;14.912;2022-12-18T01:41:58;100672.09;;;-3.92;98.82
66627;BME280;53498;50.422;14.912;2022-12-18T01:50:14;100674.88;;;-3.89;98.02
66627;BME280;53498;50.422;14.912;2022-12-18T01:52:46;100673.50;;;-4.06;97.99
66627;BME280;53498;50.422;14.912;2022-12-18T01:55:15;100676.78;;;-4.18;98.94
66627;BME280;53498;50.422;14.912;2022-12-18T01:57:41;100675.66;;;-4.01;98.74
66627;BME280;53498;50.422;14.912;2022-12-18T02:00:14;100681.50;;;-4.02;97.37
66627;BME280;53498;50.422;14.912;2022-12-18T02:02:41;100686.59;;;-3.91;97.13
66627;BME280;53498;50.422;14.912;2022-12-18T02:05:09;100686.09;;;-3.98;96.76
66627;BME280;53498;50.422;14.912;2022-12-18T02:08:30;100685.94;;;-4.09;97.53
66627;BME280;53498;50.422;14.912;2022-12-18T02:13:32;100694.59;;;-4.07;99.29
66627;BME280;53498;50.422;14.912;2022-12-18T02:18:50;100703.56;;;-4.31;100.00
66627;BME280;53498;50.422;14.912;2022-12-18T02:21:57;100699.28;;;-4.12;98.55
66627;BME280;53498;50.422;14.912;2022-12-18T02:24:34;100704.81;;;-4.47;99.16
66627;BME280;53498;50.422;14.912;2022-12-18T02:27:06;100700.25;;;-4.30;99.47
66627;BME280;53498;50.422;14.912;2022-12-18T02:29:51;100704.00;;;-4.16;98.79
66627;BME280;53498;50.422;14.912;2022-12-18T02:32:20;100710.72;;;-4.07;99.17
66627;BME280;53498;50.422;14.912;2022-12-18T02:34:50;100709.97;;;-4.16;97.11
66627;BME280;53498;50.422;14.912;2022-12-18T02:37:18;100704.84;;;-4.26;98.03
66627;BME280;53498;50.422;14.912;2022-12-18T02:39:47;100703.56;;;-4.31;97.91
66627;BME280;53498;50.422;14.912;2022-12-18T02:42:14;100716.53;;;-4.38;97.70
66627;BME280;53498;50.422;14.912;2022-12-18T02:44:46;100704.00;;;-4.56;98.78
66627;BME280;53498;50.422;14.912;2022-12-18T02:47:13;100710.16;;;-4.33;98.81
66627;BME280;53498;50.422;14.912;2022-12-18T02:50:02;100719.81;;;-4.39;98.51
66627;BME280;53498;50.422;14.912;2022-12-18T02:55:23;100716.53;;;-4.38;98.86
66627;BME280;53498;50.422;14.912;2022-12-18T02:58:21;100708.66;;;-4.31;97.99
66627;BME280;53498;50.422;14.912;2022-12-18T03:03:27;100706.91;;;-4.22;97.58
66627;BME280;53498;50.422;14.912;2022-12-18T03:06:02;100711.81;;;-4.44;97.39
66627;BME280;53498;50.422;14.912;2022-12-18T03:08:34;100708.72;;;-4.60;99.65
66627;BME280;53498;50.422;14.912;2022-12-18T03:11:07;100716.50;;;-4.78;100.00
66627;BME280;53498;50.422;14.912;2022-12-18T03:13:44;100713.78;;;-4.90;100.00
66627;BME280;53498;50.422;14.912;2022-12-18T03:16:15;100712.19;;;-4.79;100.00
66627;BME280;53498;50.422;14.912;2022-12-18T03:18:50;100718.06;;;-4.70;100.00
66627;BME280;53498;50.422;14.912;2022-12-18T03:21:20;100706.59;;;-4.85;100.00
66627;BME280;53498;50.422;14.912;2022-12-18T03:23:49;100707.91;;;-4.70;100.00
66627;BME280;53498;50.422;14.912;2022-12-18T03:26:18;100719.50;;;-4.63;99.74
66627;BME280;53498;50.422;14.912;2022-12-18T03:28:49;100730.34;;;-4.74;100.00
66627;BME280;53498;50.422;14.912;2022-12-18T03:31:17;100736.19;;;-4.75;100.00
66627;BME280;53498;50.422;14.912;2022-12-18T03:33:53;100741.28;;;-4.75;100.00
66627;BME280;53498;50.422;14.912;2022-12-18T03:36:19;100740.69;;;-4.62;100.00
66627;BME280;53498;50.422;14.912;2022-12-18T03:38:45;100742.06;;;-4.66;100.00
66627;BME280;53498;50.422;14.912;2022-12-18T03:41:18;100738.53;;;-4.58;100.00
66627;BME280;53498;50.422;14.912;2022-12-18T03:43:56;100749.75;;;-4.46;99.56
66627;BME280;53498;50.422;14.912;2022-12-18T03:47:03;100745.81;;;-4.42;98.50
66627;BME280;53498;50.422;14.912;2022-12-18T03:49:29;100744.53;;;-4.57;99.02
66627;BME280;53498;50.422;14.912;2022-12-18T03:52:06;100744.88;;;-4.63;100.00
66627;BME280;53498;50.422;14.912;2022-12-18T03:54:33;100751.94;;;-4.79;100.00
66627;BME280;53498;50.422;14.912;2022-12-18T03:57:07;100764.16;;;-4.65;100.00
66627;BME280;53498;50.422;14.912;2022-12-18T03:59:36;100770.53;;;-4.60;100.00
66627;BME280;53498;50.422;14.912;2022-12-18T04:02:03;100766.16;;;-4.71;100.00
66627;BME280;53498;50.422;14.912;2022-12-18T04:04:33;100760.13;;;-4.63;100.00
66627;BME280;53498;50.422;14.912;2022-12-18T04:06:59;100763.22;;;-4.47;99.85
66627;BME280;53498;50.422;14.912;2022-12-18T04:09:26;100760.69;;;-4.47;98.56
66627;BME280;53498;50.422;14.912;2022-12-18T04:11:52;100761.19;;;-4.51;97.98
66627;BME280;53498;50.422;14.912;2022-12-18T04:14:18;100766.88;;;-4.53;98.69
66627;BME280;53498;50.422;14.912;2022-12-18T04:16:43;100760.41;;;-4.50;98.85
66627;BME280;53498;50.422;14.912;2022-12-18T04:19:09;100764.59;;;-4.50;99.77
66627;BME280;53498;50.422;14.912;2022-12-18T04:21:35;100770.69;;;-4.48;98.85
66627;BME280;53498;50.422;14.912;2022-12-18T04:24:00;100761.19;;;-4.51;98.63
66627;BME280;53498;50.422;14.912;2022-12-18T04:26:26;100774.22;;;-4.56;98.27
66627;BME280;53498;50.422;14.912;2022-12-18T04:28:51;100781.97;;;-4.55;98.68
66627;BME280;53498;50.422;14.912;2022-12-18T04:31:17;100778.19;;;-4.50;98.58
66627;BME280;53498;50.422;14.912;2022-12-18T04:33:43;100775.78;;;-4.48;98.28
66627;BME280;53498;50.422;14.912;2022-12-18T04:36:08;100781.09;;;-4.55;98.22
66627;BME280;53498;50.422;14.912;2022-12-18T04:38:34;100787.56;;;-4.59;97.99
66627;BME280;53498;50.422;14.912;2022-12-18T04:40:59;100783.78;;;-4.54;99.98
66627;BME280;53498;50.422;14.912;2022-12-18T04:43:25;100788.34;;;-4.50;100.00
66627;BME280;53498;50.422;14.912;2022-12-18T04:45:50;100787.78;;;-4.66;100.00
66627;BME280;53498;50.422;14.912;2022-12-18T04:48:16;100792.34;;;-4.62;100.00
66627;BME280;53498;50.422;14.912;2022-12-18T04:50:41;100791.41;;;-4.54;100.00
66627;BME280;53498;50.422;14.912;2022-12-18T04:53:07;100790.44;;;-4.65;100.00
66627;BME280;53498;50.422;14.912;2022-12-18T04:55:33;100796.41;;;-4.64;100.00
66627;BME280;53498;50.422;14.912;2022-12-18T04:57:58;100802.25;;;-4.65;100.00
66627;BME280;53498;50.422;14.912;2022-12-18T05:00:24;100801.63;;;-4.62;100.00
66627;BME280;53498;50.422;14.912;2022-12-18T05:02:49;100803.22;;;-4.73;100.00
66627;BME280;53498;50.422;14.912;2022-12-18T05:05:15;100805.00;;;-4.72;100.00
66627;BME280;53498;50.422;14.912;2022-12-18T05:07:41;100811.59;;;-4.74;100.00
66627;BME280;53498;50.422;14.912;2022-12-18T05:10:07;100813.25;;;-4.94;100.00
66627;BME280;53498;50.422;14.912;2022-12-18T05:12:33;100821.53;;;-5.05;100.00
66627;BME280;53498;50.422;14.912;2022-12-18T05:14:58;100828.22;;;-4.97;100.00
66627;BME280;53498;50.422;14.912;2022-12-18T05:17:24;100822.53;;;-4.94;100.00
66627;BME280;53498;50.422;14.912;2022-12-18T05:19:49;100829.59;;;-4.81;100.00
66627;BME280;53498;50.422;14.912;2022-12-18T05:22:15;100829.63;;;-4.71;100.00
66627;BME280;53498;50.422;14.912;2022-12-18T05:24:40;100821.06;;;-4.63;99.82
66627;BME280;53498;50.422;14.912;2022-12-18T05:27:06;100820.44;;;-4.60;100.00
66627;BME280;53498;50.422;14.912;2022-12-18T05:29:32;100829.47;;;-4.54;99.31
66627;BME280;53498;50.422;14.912;2022-12-18T05:31:57;100828.72;;;-4.53;100.00
66627;BME280;53498;50.422;14.912;2022-12-18T05:34:23;100838.56;;;-4.85;100.00
66627;BME280;53498;50.422;14.912;2022-12-18T05:36:48;100843.78;;;-5.02;100.00
66627;BME280;53498;50.422;14.912;2022-12-18T05:39:14;100838.09;;;-5.00;100.00
66627;BME280;53498;50.422;14.912;2022-12-18T05:41:40;100838.41;;;-4.86;100.00
66627;BME280;53498;50.422;14.912;2022-12-18T05:44:05;100853.66;;;-4.86;100.00
66627;BME280;53498;50.422;14.912;2022-12-18T05:46:31;100859.78;;;-4.84;100.00
66627;BME280;53498;50.422;14.912;2022-12-18T05:49:00;100849.72;;;-4.64;100.00
66627;BME280;53498;50.422;14.912;2022-12-18T05:51:27;100847.00;;;-4.57;100.00
66627;BME280;53498;50.422;14.912;2022-12-18T05:53:52;100847.25;;;-4.54;100.00
66627;BME280;53498;50.422;14.912;2022-12-18T05:56:20;100853.88;;;-4.46;100.00
66627;BME280;53498;50.422;14.912;2022-12-18T05:58:46;100853.31;;;-4.62;100.00
66627;BME280;53498;50.422;14.912;2022-12-18T06:01:17;100860.69;;;-4.55;100.00
66627;BME280;53498;50.422;14.912;2022-12-18T06:03:44;100862.63;;;-4.71;100.00
66627;BME280;53498;50.422;14.912;2022-12-18T06:06:20;100865.66;;;-4.75;100.00
66627;BME280;53498;50.422;14.912;2022-12-18T06:08:47;100864.78;;;-4.76;100.00
66627;BME280;53498;50.422;14.912;2022-12-18T06:11:17;100857.28;;;-5.12;100.00
66627;BME280;53498;50.422;14.912;2022-12-18T06:13:43;100872.56;;;-5.02;100.00
66627;BME280;53498;50.422;14.912;2022-12-18T06:16:09;100875.38;;;-4.99;100.00
66627;BME280;53498;50.422;14.912;2022-12-18T06:18:37;100873.22;;;-4.85;100.00
66627;BME280;53498;50.422;14.912;2022-12-18T06:21:03;100878.31;;;-4.85;100.00
66627;BME280;53498;50.422;14.912;2022-12-18T06:23:29;100879.03;;;-5.05;100.00
66627;BME280;53498;50.422;14.912;2022-12-18T06:25:54;100882.38;;;-5.15;100.00
66627;BME280;53498;50.422;14.912;2022-12-18T06:28:20;100889.22;;;-5.14;100.00
66627;BME280;53498;50.422;14.912;2022-12-18T06:30:47;100897.34;;;-5.27;100.00
66627;BME280;53498;50.422;14.912;2022-12-18T06:33:14;100893.50;;;-5.23;100.00
66627;BME280;53498;50.422;14.912;2022-12-18T06:35:40;100890.75;;;-5.16;100.00
66627;BME280;53498;50.422;14.912;2022-12-18T06:38:05;100898.44;;;-5.06;100.00
66627;BME280;53498;50.422;14.912;2022-12-18T06:40:31;100895.09;;;-5.24;100.00
66627;BME280;53498;50.422;14.912;2022-12-18T06:42:57;100895.34;;;-5.12;100.00
66627;BME280;53498;50.422;14.912;2022-12-18T06:45:23;100894.41;;;-5.31;100.00
66627;BME280;53498;50.422;14.912;2022-12-18T06:47:49;100920.91;;;-5.19;100.00
66627;BME280;53498;50.422;14.912;2022-12-18T06:50:15;100908.25;;;-5.00;100.00
66627;BME280;53498;50.422;14.912;2022-12-18T06:52:41;100912.84;;;-5.24;100.00
66627;BME280;53498;50.422;14.912;2022-12-18T06:55:08;100921.38;;;-5.23;100.00
66627;BME280;53498;50.422;14.912;2022-12-18T06:57:34;100920.88;;;-5.10;100.00
66627;BME280;53498;50.422;14.912;2022-12-18T07:00:00;100915.72;;;-5.02;100.00
66627;BME280;53498;50.422;14.912;2022-12-18T07:02:26;100915.72;;;-5.02;100.00
66627;BME280;53498;50.422;14.912;2022-12-18T07:04:52;100928.03;;;-4.88;100.00
66627;BME280;53498;50.422;14.912;2022-12-18T07:07:17;100935.94;;;-5.12;100.00
66627;BME280;53498;50.422;14.912;2022-12-18T07:09:43;100942.50;;;-5.42;100.00
66627;BME280;53498;50.422;14.912;2022-12-18T07:12:08;100947.97;;;-5.28;100.00
66627;BME280;53498;50.422;14.912;2022-12-18T07:14:34;100946.38;;;-5.09;100.00
66627;BME280;53498;50.422;14.912;2022-12-18T07:16:59;100952.94;;;-5.11;100.00
66627;BME280;53498;50.422;14.912;2022-12-18T07:19:25;100955.06;;;-5.16;100.00
66627;BME280;53498;50.422;14.912;2022-12-18T07:21:51;100960.25;;;-5.14;100.00
66627;BME280;53498;50.422;14.912;2022-12-18T07:24:17;100980.19;;;-5.27;100.00
66627;BME280;53498;50.422;14.912;2022-12-18T07:26:45;100975.84;;;-5.20;100.00
66627;BME280;53498;50.422;14.912;2022-12-18T07:29:11;100966.19;;;-5.05;100.00
66627;BME280;53498;50.422;14.912;2022-12-18T07:31:36;100963.56;;;-4.88;100.00
66627;BME280;53498;50.422;14.912;2022-12-18T07:34:02;100963.63;;;-4.77;100.00
66627;BME280;53498;50.422;14.912;2022-12-18T07:36:28;100967.72;;;-4.79;100.00
66627;BME280;53498;50.422;14.912;2022-12-18T07:38:53;100972.78;;;-4.79;100.00
66627;BME280;53498;50.422;14.912;2022-12-18T07:41:19;100979.19;;;-4.83;100.00
66627;BME280;53498;50.422;14.912;2022-12-18T07:43:46;100982.66;;;-4.82;100.00
66627;BME280;53498;50.422;14.912;2022-12-18T07:46:12;100986.63;;;-4.76;100.00
66627;BME280;53498;50.422;14.912;2022-12-18T07:48:42;100990.16;;;-4.65;100.00
66627;BME280;53498;50.422;14.912;2022-12-18T07:51:08;100987.31;;;-4.68;100.00
66627;BME280;53498;50.422;14.912;2022-12-18T07:53:38;100996.91;;;-4.74;100.00
66627;BME280;53498;50.422;14.912;2022-12-18T07:56:07;100997.69;;;-4.75;100.00
66627;BME280;53498;50.422;14.912;2022-12-18T07:58:34;100999.75;;;-4.71;100.00
66627;BME280;53498;50.422;14.912;2022-12-18T08:01:07;100999.38;;;-4.84;100.00
66627;BME280;53498;50.422;14.912;2022-12-18T08:03:33;101003.53;;;-5.04;99.53
66627;BME280;53498;50.422;14.912;2022-12-18T08:06:03;100997.78;;;-4.93;100.00
66627;BME280;53498;50.422;14.912;2022-12-18T08:08:30;101006.75;;;-4.96;100.00
66627;BME280;53498;50.422;14.912;2022-12-18T08:10:56;101010.19;;;-4.96;100.00
66627;BME280;53498;50.422;14.912;2022-12-18T08:13:22;101004.72;;;-5.09;100.00
66627;BME280;53498;50.422;14.912;2022-12-18T08:16:01;101011.72;;;-5.06;100.00
66627;BME280;53498;50.422;14.912;2022-12-18T08:18:27;101001.91;;;-5.12;100.00
66627;BME280;53498;50.422;14.912;2022-12-18T08:20:52;101015.13;;;-4.97;100.00
66627;BME280;53498;50.422;14.912;2022-12-18T08:23:18;101013.75;;;-4.94;100.00
66627;BME280;53498;50.422;14.912;2022-12-18T08:25:44;101004.69;;;-5.00;100.00
66627;BME280;53498;50.422;14.912;2022-12-18T08:28:10;101009.28;;;-4.96;100.00
66627;BME280;53498;50.422;14.912;2022-12-18T08:30:36;100994.50;;;-4.92;100.00
66627;BME280;53498;50.422;14.912;2022-12-18T08:33:02;100994.72;;;-4.80;100.00
66627;BME280;53498;50.422;14.912;2022-12-18T08:35:27;101001.34;;;-4.91;100.00
66627;BME280;53498;50.422;14.912;2022-12-18T08:37:53;101012.72;;;-5.23;100.00
66627;BME280;53498;50.422;14.912;2022-12-18T08:40:19;101010.19;;;-4.96;100.00
66627;BME280;53498;50.422;14.912;2022-12-18T08:42:44;101010.66;;;-5.00;100.00
66627;BME280;53498;50.422;14.912;2022-12-18T08:45:29;101003.56;;;-5.13;100.00
66627;BME280;53498;50.422;14.912;2022-12-18T08:47:54;101007.41;;;-5.07;100.00
66627;BME280;53498;50.422;14.912;2022-12-18T08:50:20;101002.06;;;-5.10;100.00
66627;BME280;53498;50.422;14.912;2022-12-18T08:52:46;101007.00;;;-4.84;100.00
66627;BME280;53498;50.422;14.912;2022-12-18T08:55:12;101014.53;;;-4.95;100.00
66627;BME280;53498;50.422;14.912;2022-12-18T08:57:37;101017.97;;;-5.03;100.00
66627;BME280;53498;50.422;14.912;2022-12-18T09:00:04;101017.13;;;-5.12;100.00
66627;BME280;53498;50.422;14.912;2022-12-18T09:02:30;101019.31;;;-5.34;100.00
66627;BME280;53498;50.422;14.912;2022-12-18T09:04:55;101010.81;;;-5.43;100.00
66627;BME280;53498;50.422;14.912;2022-12-18T09:07:21;101003.47;;;-5.23;100.00
66627;BME280;53498;50.422;14.912;2022-12-18T09:09:52;100999.47;;;-5.02;100.00
66627;BME280;53498;50.422;14.912;2022-12-18T09:12:18;101006.22;;;-4.83;100.00
66627;BME280;53498;50.422;14.912;2022-12-18T09:14:44;100996.44;;;-4.70;100.00
66627;BME280;53498;50.422;14.912;2022-12-18T09:17:10;101004.84;;;-4.80;100.00
66627;BME280;53498;50.422;14.912;2022-12-18T09:19:35;101003.09;;;-4.81;100.00
66627;BME280;53498;50.422;14.912;2022-12-18T09:22:01;101002.75;;;-4.75;100.00
66627;BME280;53498;50.422;14.912;2022-12-18T09:24:26;101004.72;;;-5.09;100.00
66627;BME280;53498;50.422;14.912;2022-12-18T09:26:53;101000.56;;;-5.17;100.00
66627;BME280;53498;50.422;14.912;2022-12-18T09:29:20;100999.16;;;-5.05;100.00
66627;BME280;53498;50.422;14.912;2022-12-18T09:31:46;101008.63;;;-5.13;100.00
66627;BME280;53498;50.422;14.912;2022-12-18T09:34:12;101014.97;;;-4.99;100.00
66627;BME280;53498;50.422;14.912;2022-12-18T09:36:38;101022.81;;;-5.15;100.00
66627;BME280;53498;50.422;14.912;2022-12-18T09:39:04;101026.47;;;-5.02;100.00
66627;BME280;53498;50.422;14.912;2022-12-18T09:41:54;101030.31;;;-4.89;100.00
66627;BME280;53498;50.422;14.912;2022-12-18T09:44:36;101029.69;;;-4.86;100.00
66627;BME280;53498;50.422;14.912;2022-12-18T09:49:51;101028.78;;;-4.86;100.00
66627;BME280;53498;50.422;14.912;2022-12-18T09:52:26;101025.88;;;-4.72;100.00
66627;BME280;53498;50.422;14.912;2022-12-18T09:55:00;101019.56;;;-4.67;100.00
66627;BME280;53498;50.422;14.912;2022-12-18T09:57:31;101015.53;;;-4.65;100.00
66627;BME280;53498;50.422;14.912;2022-12-18T10:02:36;101030.81;;;-4.74;99.59
66627;BME280;53498;50.422;14.912;2022-12-18T10:05:05;101047.13;;;-4.80;100.00
66627;BME280;53498;50.422;14.912;2022-12-18T10:10:26;101054.94;;;-4.88;99.80
66627;BME280;53498;50.422;14.912;2022-12-18T10:21:01;101049.47;;;-4.73;100.00
66627;BME280;53498;50.422;14.912;2022-12-18T10:26:22;101050.16;;;-4.57;99.61
66627;BME280;53498;50.422;14.912;2022-12-18T10:28:48;101057.09;;;-4.73;99.43
66627;BME280;53498;50.422;14.912;2022-12-18T10:31:21;101055.31;;;-4.74;98.97
66627;BME280;53498;50.422;14.912;2022-12-18T10:33:47;101044.97;;;-4.67;99.00
66627;BME280;53498;50.422;14.912;2022-12-18T10:36:13;101049.34;;;-5.11;99.48
66627;BME280;53498;50.422;14.912;2022-12-18T10:38:39;101034.03;;;-5.21;100.00
66627;BME280;53498;50.422;14.912;2022-12-18T10:41:05;101029.53;;;-5.15;100.00
66627;BME280;53498;50.422;14.912;2022-12-18T10:43:35;101030.13;;;-5.18;100.00
66627;BME280;53498;50.422;14.912;2022-12-18T10:48:47;101026.88;;;-5.17;100.00
66627;BME280;53498;50.422;14.912;2022-12-18T10:51:24;101009.56;;;-4.93;100.00
66627;BME280;53498;50.422;14.912;2022-12-18T10:56:31;101013.88;;;-4.65;100.00
66627;BME280;53498;50.422;14.912;2022-12-18T10:59:01;101006.31;;;-4.73;100.00
66627;BME280;53498;50.422;14.912;2022-12-18T11:01:44;101008.78;;;-4.83;100.00
66627;BME280;53498;50.422;14.912;2022-12-18T11:04:16;101009.28;;;-4.69;100.00
66627;BME280;53498;50.422;14.912;2022-12-18T11:09:24;101017.97;;;-5.03;100.00
66627;BME280;53498;50.422;14.912;2022-12-18T11:11:55;101008.63;;;-5.13;100.00
66627;BME280;53498;50.422;14.912;2022-12-18T11:14:28;100996.56;;;-4.88;100.00
66627;BME280;53498;50.422;14.912;2022-12-18T11:16:55;100988.75;;;-4.80;100.00
66627;BME280;53498;50.422;14.912;2022-12-18T11:19:36;100988.00;;;-5.07;100.00
66627;BME280;53498;50.422;14.912;2022-12-18T11:22:21;100984.88;;;-5.41;100.00
66627;BME280;53498;50.422;14.912;2022-12-18T11:27:38;100968.00;;;-5.04;100.00
66627;BME280;53498;50.422;14.912;2022-12-18T11:30:31;100973.53;;;-5.36;100.00
66627;BME280;53498;50.422;14.912;2022-12-18T11:33:17;100976.78;;;-5.37;100.00
66627;BME280;53498;50.422;14.912;2022-12-18T11:35:53;100969.06;;;-5.47;100.00
66627;BME280;53498;50.422;14.912;2022-12-18T11:38:24;100978.94;;;-5.50;100.00
66627;BME280;53498;50.422;14.912;2022-12-18T11:40:57;100977.25;;;-5.41;100.00
66627;BME280;53498;50.422;14.912;2022-12-18T11:43:50;100974.69;;;-5.32;100.00
66627;BME280;53498;50.422;14.912;2022-12-18T11:46:27;100980.56;;;-5.42;100.00
66627;BME280;53498;50.422;14.912;2022-12-18T11:49:06;100982.03;;;-5.44;100.00
66627;BME280;53498;50.422;14.912;2022-12-18T11:51:38;100980.97;;;-5.37;100.00
66627;BME280;53498;50.422;14.912;2022-12-18T11:54:13;100985.47;;;-5.43;100.00
66627;BME280;53498;50.422;14.912;2022-12-18T11:56:48;100986.75;;;-5.74;100.00
66627;BME280;53498;50.422;14.912;2022-12-18T11:59:52;100988.38;;;-5.66;100.00
66627;BME280;53498;50.422;14.912;2022-12-18T12:12:57;100988.38;;;-5.57;100.00
66627;BME280;53498;50.422;14.912;2022-12-18T12:21:23;100984.75;;;-5.51;100.00
66627;BME280;53498;50.422;14.912;2022-12-18T12:27:24;100983.03;;;-5.33;100.00
66627;BME280;53498;50.422;14.912;2022-12-18T12:36:04;101000.25;;;-5.48;100.00
66627;BME280;53498;50.422;14.912;2022-12-18T12:38:41;100989.03;;;-5.32;100.00
66627;BME280;53498;50.422;14.912;2022-12-18T12:41:17;100992.28;;;-5.33;100.00
66627;BME280;53498;50.422;14.912;2022-12-18T12:44:08;100994.69;;;-5.35;100.00
66627;BME280;53498;50.422;14.912;2022-12-18T12:46:42;100991.72;;;-5.40;100.00
66627;BME280;53498;50.422;14.912;2022-12-18T12:49:12;100992.41;;;-5.68;100.00
66627;BME280;53498;50.422;14.912;2022-12-18T12:51:42;101000.47;;;-5.64;100.00
66627;BME280;53498;50.422;14.912;2022-12-18T12:54:20;101004.31;;;-5.67;100.00
66627;BME280;53498;50.422;14.912;2022-12-18T12:56:57;101002.22;;;-5.54;100.00
66627;BME280;53498;50.422;14.912;2022-12-18T12:59:41;100993.16;;;-5.78;100.00
66627;BME280;53498;50.422;14.912;2022-12-18T13:07:54;101007.72;;;-5.49;100.00
66627;BME280;53498;50.422;14.912;2022-12-18T13:10:30;101004.56;;;-5.47;100.00
66627;BME280;53498;50.422;14.912;2022-12-18T13:18:10;101013.84;;;-5.56;100.00
66627;BME280;53498;50.422;14.912;2022-12-18T13:21:14;101022.75;;;-5.42;100.00
66627;BME280;53498;50.422;14.912;2022-12-18T13:23:37;101013.97;;;-5.46;100.00
66627;BME280;53498;50.422;14.912;2022-12-18T13:34:16;101023.09;;;-5.48;100.00
66627;BME280;53498;50.422;14.912;2022-12-18T13:36:41;101031.59;;;-5.56;100.00
66627;BME280;53498;50.422;14.912;2022-12-18T13:39:21;101035.28;;;-5.44;100.00
66627;BME280;53498;50.422;14.912;2022-12-18T13:44:38;101024.66;;;-5.85;100.00
66627;BME280;53498;50.422;14.912;2022-12-18T13:47:27;101021.63;;;-5.63;100.00
66627;BME280;53498;50.422;14.912;2022-12-18T13:49:56;101015.19;;;-5.60;100.00
66627;BME280;53498;50.422;14.912;2022-12-18T13:52:27;101017.56;;;-5.61;100.00
66627;BME280;53498;50.422;14.912;2022-12-18T13:54:56;101023.13;;;-5.65;100.00
66627;BME280;53498;50.422;14.912;2022-12-18T14:00:26;101034.69;;;-5.32;100.00
66627;BME280;53498;50.422;14.912;2022-12-18T14:02:54;101033.22;;;-5.48;100.00
66627;BME280;53498;50.422;14.912;2022-12-18T14:05:33;101036.28;;;-5.33;100.00
66627;BME280;53498;50.422;14.912;2022-12-18T14:08:11;101029.03;;;-5.47;100.00
66627;BME280;53498;50.422;14.912;2022-12-18T14:10:42;101025.19;;;-5.61;100.00
66627;BME280;53498;50.422;14.912;2022-12-18T14:13:10;101032.19;;;-5.59;100.00
66627;BME280;53498;50.422;14.912;2022-12-18T14:15:41;101035.38;;;-5.70;100.00
66627;BME280;53498;50.422;14.912;2022-12-18T14:18:22;101044.28;;;-5.56;100.00
66627;BME280;53498;50.422;14.912;2022-12-18T14:20:57;101045.50;;;-5.70;100.00
66627;BME280;53498;50.422;14.912;2022-12-18T14:25:58;101042.81;;;-5.71;100.00